createdAt,value
2022-09-28T00:03:07.801Z,10.00
2022-09-28T00:08:10.493Z,9.90
2022-09-28T00:13:13.154Z,9.90
2022-09-28T00:18:17.105Z,10.00
2022-09-28T00:23:19.739Z,10.00
2022-09-28T00:28:22.394Z,9.90
2022-09-28T00:33:26.569Z,9.90
2022-09-28T00:38:30.278Z,10.00
2022-09-28T00:43:32.933Z,9.90
2022-09-28T00:48:40.923Z,9.90
2022-09-28T00:53:45.349Z,10.10
2022-09-28T00:58:51.241Z,10.00
2022-09-28T01:03:55.331Z,9.80
2022-09-28T01:09:02.545Z,9.70
2022-09-28T01:14:08.967Z,9.70
2022-09-28T01:19:31.492Z,9.90
2022-09-28T01:24:42.895Z,9.90
2022-09-28T01:29:52.690Z,9.80
2022-09-28T01:34:59.583Z,9.80
2022-09-28T01:40:03.982Z,10.00
2022-09-28T01:45:13.221Z,9.80
2022-09-28T01:50:19.248Z,9.90
2022-09-28T01:55:29.374Z,9.90
2022-09-28T02:00:39.382Z,9.90
2022-09-28T02:05:49.593Z,9.90
2022-09-28T02:10:56.936Z,9.90
2022-09-28T02:16:05.554Z,10.00
2022-09-28T02:21:13.588Z,10.10
2022-09-28T02:26:19.476Z,10.10
2022-09-28T02:31:26.456Z,10.10
2022-09-28T02:36:31.407Z,10.00
2022-09-28T02:41:52.616Z,10.00
2022-09-28T02:47:01.461Z,10.00
2022-09-28T02:52:24.516Z,10.00
2022-09-28T02:57:38.363Z,9.90
2022-09-28T03:02:55.799Z,9.90
2022-09-28T03:08:00.875Z,9.90
2022-09-28T03:13:05.319Z,9.80
2022-09-28T03:18:09.504Z,9.70
2022-09-28T03:23:24.401Z,9.60
2022-09-28T03:28:28.196Z,9.60
2022-09-28T03:33:32.187Z,9.60
2022-09-28T03:38:34.883Z,9.50
2022-09-28T03:43:37.536Z,9.50
2022-09-28T03:48:41.546Z,9.50
2022-09-28T03:53:44.195Z,9.50
2022-09-28T03:58:46.937Z,9.50
2022-09-28T04:03:55.246Z,9.50
2022-09-28T04:08:58.083Z,9.50
2022-09-28T04:14:00.912Z,9.60
2022-09-28T04:19:05.029Z,9.60
2022-09-28T04:24:07.880Z,9.50
2022-09-28T04:29:16.986Z,9.30
2022-09-28T04:34:23.356Z,9.20
2022-09-28T04:39:26.012Z,9.20
2022-09-28T04:44:28.740Z,9.20
2022-09-28T04:49:35.341Z,9.00
2022-09-28T04:54:38.035Z,8.90
2022-09-28T04:59:40.689Z,8.80
2022-09-28T05:04:44.681Z,8.90
2022-09-28T05:09:47.338Z,9.00
2022-09-28T05:14:49.978Z,9.00
2022-09-28T05:19:53.918Z,9.00
2022-09-28T05:24:58.214Z,9.00
2022-09-28T05:30:00.900Z,9.00
2022-09-28T05:35:06.273Z,9.10
2022-09-28T05:40:10.010Z,9.20
2022-09-28T05:45:12.698Z,9.20
2022-09-28T05:50:16.930Z,9.30
2022-09-28T05:55:19.546Z,9.50
2022-09-28T06:00:23.131Z,9.70
2022-09-28T06:05:27.266Z,9.80
2022-09-28T06:10:29.934Z,9.90
2022-09-28T06:15:34.603Z,9.90
2022-09-28T06:20:41.002Z,10.10
2022-09-28T06:25:43.652Z,10.20
2022-09-28T06:30:48.164Z,10.30
2022-09-28T06:35:52.179Z,10.30
2022-09-28T06:40:54.875Z,10.30
2022-09-28T06:45:57.729Z,10.50
2022-09-28T06:51:02.260Z,10.70
2022-09-28T06:56:06.900Z,10.70
2022-09-28T07:01:11.984Z,10.80
2022-09-28T07:06:16.119Z,10.70
2022-09-28T07:11:20.359Z,10.80
2022-09-28T07:16:27.229Z,10.90
2022-09-28T07:21:35.913Z,11.00
2022-09-28T07:26:38.613Z,11.00
2022-09-28T07:31:41.406Z,11.00
2022-09-28T07:36:45.455Z,11.00
2022-09-28T07:41:48.822Z,10.90
2022-09-28T07:46:51.528Z,11.00
2022-09-28T07:51:56.427Z,10.90
2022-09-28T07:56:59.111Z,11.00
2022-09-28T08:02:01.847Z,11.10
2022-09-28T08:07:10.348Z,11.20
2022-09-28T08:12:13.883Z,11.30
2022-09-28T08:17:16.631Z,11.30
2022-09-28T08:22:21.096Z,10.90
2022-09-28T08:27:23.731Z,10.80
2022-09-28T08:32:26.375Z,10.90
2022-09-28T08:37:30.344Z,10.80
2022-09-28T08:42:36.544Z,10.70
2022-09-28T08:48:06.429Z,10.30
2022-09-28T08:53:24.811Z,10.00
2022-09-28T08:58:33.594Z,10.00
2022-09-28T09:03:39.673Z,9.90
2022-09-28T09:08:57.240Z,10.00
2022-09-28T09:14:36.530Z,9.90
2022-09-28T09:19:49.405Z,9.60
2022-09-28T09:25:00.369Z,9.40
2022-09-28T09:30:07.201Z,9.60
2022-09-28T09:36:01.186Z,10.00
2022-09-28T09:41:18.374Z,10.10
2022-09-28T09:46:30.556Z,10.10
2022-09-28T09:51:42.600Z,10.30
2022-09-28T09:56:53.232Z,10.30
2022-09-28T10:01:56.941Z,10.10
2022-09-28T10:07:04.538Z,10.00
2022-09-28T10:12:15.131Z,10.10
2022-09-28T10:17:20.124Z,10.10
2022-09-28T10:22:25.950Z,10.40
2022-09-28T10:27:34.690Z,11.40
2022-09-28T10:32:39.368Z,11.70
2022-09-28T10:37:52.199Z,11.70
2022-09-28T10:43:06.757Z,12.30
2022-09-28T10:48:18.752Z,12.50
2022-09-28T10:53:21.964Z,12.10
2022-09-28T10:58:28.851Z,11.60
2022-09-28T11:03:32.546Z,11.70
2022-09-28T11:08:39.504Z,11.60
2022-09-28T11:13:46.320Z,11.50
2022-09-28T11:18:49.460Z,11.50
2022-09-28T11:24:01.854Z,11.80
2022-09-28T11:29:07.439Z,11.60
2022-09-28T11:34:17.284Z,11.00
2022-09-28T11:39:28.101Z,10.90
2022-09-28T11:44:41.261Z,11.90
2022-09-28T11:49:47.620Z,13.20
2022-09-28T11:54:55.852Z,17.80
2022-09-28T12:00:03.675Z,27.00
2022-09-28T12:05:18.421Z,29.40
2022-09-28T12:10:36.830Z,22.30
2022-09-28T12:16:16.831Z,18.20
2022-09-28T12:21:22.646Z,16.80
2022-09-28T12:26:37.230Z,16.20
2022-09-28T12:31:53.566Z,15.70
2022-09-28T12:37:16.133Z,14.60
2022-09-28T12:42:31.571Z,13.50
2022-09-28T12:47:57.700Z,13.30
2022-09-28T12:53:19.341Z,14.00
2022-09-28T12:58:40.686Z,16.10
2022-09-28T13:04:00.151Z,19.00
2022-09-28T13:09:21.577Z,17.00
2022-09-28T13:14:49.039Z,16.20
2022-09-28T13:19:59.265Z,15.40
2022-09-28T13:25:06.645Z,14.20
2022-09-28T13:30:14.211Z,13.50
2022-09-28T13:35:20.296Z,14.70
2022-09-28T13:41:09.846Z,15.10
2022-09-28T13:46:22.834Z,15.00
2022-09-28T13:51:34.250Z,15.20
2022-09-28T13:56:41.851Z,14.40
2022-09-28T14:01:53.051Z,13.50
2022-09-28T14:07:09.734Z,13.20
2022-09-28T14:12:43.868Z,13.40
2022-09-28T14:17:58.698Z,12.90
2022-09-28T14:23:29.155Z,12.40
2022-09-28T14:28:43.163Z,12.10
2022-09-28T14:33:56.788Z,12.00
2022-09-28T14:39:18.624Z,11.90
2022-09-28T14:44:22.073Z,11.80
2022-09-28T14:49:44.790Z,11.50
2022-09-28T14:54:54.202Z,12.70
2022-09-28T14:59:59.892Z,15.10
2022-09-28T15:05:14.784Z,19.90
2022-09-28T15:10:31.183Z,22.70
2022-09-28T15:15:36.464Z,23.60
2022-09-28T15:20:41.564Z,22.70
2022-09-28T15:25:53.549Z,22.60
2022-09-28T15:31:01.302Z,21.20
2022-09-28T15:36:07.582Z,19.20
2022-09-28T15:41:11.802Z,15.90
2022-09-28T15:46:18.341Z,14.10
2022-09-28T15:59:03.463Z,12.80
2022-09-28T16:15:58.139Z,12.20
2022-09-28T16:21:26.174Z,12.10
2022-09-28T16:26:33.450Z,11.90
2022-09-28T16:31:37.810Z,11.80
2022-09-28T16:36:45.732Z,11.70
2022-09-28T16:41:51.349Z,11.60
2022-09-28T16:46:58.372Z,11.50
2022-09-28T16:52:01.175Z,11.40
2022-09-28T16:57:05.742Z,11.20
2022-09-28T17:02:45.285Z,11.00
2022-09-28T17:07:45.345Z,10.90
2022-09-28T17:12:47.981Z,10.90
2022-09-28T17:17:52.024Z,10.90
2022-09-28T17:22:55.004Z,10.80
2022-09-28T17:27:59.162Z,10.90
2022-09-28T17:33:03.246Z,10.90
2022-09-28T17:38:05.908Z,11.00
2022-09-28T17:43:08.816Z,10.90
2022-09-28T17:48:15.676Z,10.80
2022-09-28T17:53:18.566Z,10.90
2022-09-28T17:58:22.966Z,10.80
2022-09-28T18:03:26.963Z,10.90
2022-09-28T18:08:29.820Z,10.50
2022-09-28T18:13:32.674Z,10.10
2022-09-28T18:18:39.718Z,9.60
2022-09-28T18:23:42.677Z,9.30
2022-09-28T18:28:45.476Z,9.30
2022-09-28T18:33:49.727Z,9.10
2022-09-28T18:38:53.092Z,9.00
2022-09-28T18:44:00.531Z,8.70
2022-09-28T18:49:05.527Z,8.40
2022-09-28T18:54:12.316Z,8.20
2022-09-28T18:59:18.548Z,8.20
2022-09-28T19:04:23.812Z,8.60
2022-09-28T19:09:29.140Z,8.80
2022-09-28T19:14:32.165Z,8.80
2022-09-28T19:19:39.325Z,8.40
2022-09-28T19:24:42.193Z,8.30
2022-09-28T19:29:45.000Z,8.20
2022-09-28T19:34:49.601Z,8.20
2022-09-28T19:39:52.400Z,8.20
2022-09-28T19:44:55.110Z,8.00
2022-09-28T19:49:59.215Z,7.90
2022-09-28T19:55:02.026Z,7.90
2022-09-28T20:00:05.640Z,7.70
2022-09-28T20:05:10.119Z,7.60
2022-09-28T20:10:13.190Z,7.30
2022-09-28T20:15:16.548Z,7.10
2022-09-28T20:20:20.629Z,7.00
2022-09-28T20:25:23.364Z,6.90
2022-09-28T20:30:26.097Z,7.00
2022-09-28T20:35:32.973Z,7.20
2022-09-28T20:40:36.470Z,7.30
2022-09-28T20:45:39.301Z,7.40
2022-09-28T20:50:43.594Z,7.60
2022-09-28T20:55:46.437Z,7.60
2022-09-28T21:00:49.187Z,7.40
2022-09-28T21:05:53.291Z,7.00
2022-09-28T21:10:56.003Z,6.80
2022-09-28T21:16:02.799Z,6.80
2022-09-28T21:21:08.828Z,6.80
2022-09-28T21:26:14.193Z,6.90
2022-09-28T21:31:17.017Z,6.70
2022-09-28T21:36:21.095Z,6.50
2022-09-28T21:41:24.514Z,6.70
2022-09-28T21:46:33.376Z,6.90
2022-09-28T21:51:38.071Z,6.70
2022-09-28T21:56:40.810Z,6.90
2022-09-28T22:01:44.180Z,6.80
2022-09-28T22:06:48.308Z,6.70
2022-09-28T22:11:51.271Z,6.30
2022-09-28T22:16:54.019Z,6.10
2022-09-28T22:21:58.130Z,5.80
2022-09-28T22:27:01.027Z,5.80
2022-09-28T22:32:03.835Z,5.80
2022-09-28T22:37:07.954Z,6.10
2022-09-28T22:42:10.691Z,6.30
2022-09-28T22:47:13.674Z,6.40
2022-09-28T22:52:18.092Z,6.40
2022-09-28T22:57:20.994Z,6.30
2022-09-28T23:02:23.844Z,6.40
2022-09-28T23:07:29.143Z,6.30
2022-09-28T23:12:33.279Z,6.30
2022-09-28T23:17:36.287Z,6.10
2022-09-28T23:22:40.464Z,6.10
2022-09-28T23:27:46.317Z,6.10
2022-09-28T23:32:49.608Z,6.10
2022-09-28T23:37:53.682Z,6.00
2022-09-28T23:42:56.445Z,5.90
2022-09-28T23:47:59.209Z,5.80
2022-09-28T23:53:03.322Z,5.80
2022-09-28T23:58:06.210Z,5.70
